sensor_id;sensor_type;location;lat;lon;timestamp;temperature;humidity
70947;DHT22;58605;48.700;8.760;2023-06-19T00:01:25;20.00;76.20
70947;DHT22;58605;48.700;8.760;2023-06-19T00:03:51;20.00;75.80
70947;DHT22;58605;48.700;8.760;2023-06-19T00:06:18;20.00;74.20
70947;DHT22;58605;48.700;8.760;2023-06-19T00:08:44;20.20;74.10
70947;DHT22;58605;48.700;8.760;2023-06-19T00:11:10;20.30;74.30
70947;DHT22;58605;48.700;8.760;2023-06-19T00:13:38;20.40;76.00
70947;DHT22;58605;48.700;8.760;2023-06-19T00:16:05;20.40;75.20
70947;DHT22;58605;48.700;8.760;2023-06-19T00:18:31;20.30;76.70
70947;DHT22;58605;48.700;8.760;2023-06-19T00:21:05;20.20;77.00
70947;DHT22;58605;48.700;8.760;2023-06-19T00:23:32;20.20;77.80
70947;DHT22;58605;48.700;8.760;2023-06-19T00:25:58;20.20;79.80
70947;DHT22;58605;48.700;8.760;2023-06-19T00:28:27;20.00;79.00
70947;DHT22;58605;48.700;8.760;2023-06-19T00:30:54;20.00;77.50
70947;DHT22;58605;48.700;8.760;2023-06-19T00:33:21;20.10;76.80
70947;DHT22;58605;48.700;8.760;2023-06-19T00:35:47;20.00;76.70
70947;DHT22;58605;48.700;8.760;2023-06-19T00:38:14;20.10;79.30
70947;DHT22;58605;48.700;8.760;2023-06-19T00:40:40;20.10;77.20
70947;DHT22;58605;48.700;8.760;2023-06-19T00:43:06;20.30;75.60
70947;DHT22;58605;48.700;8.760;2023-06-19T00:45:33;20.30;75.60
70947;DHT22;58605;48.700;8.760;2023-06-19T00:48:00;20.40;74.40
70947;DHT22;58605;48.700;8.760;2023-06-19T00:50:28;20.40;73.90
70947;DHT22;58605;48.700;8.760;2023-06-19T00:52:58;20.30;74.00
70947;DHT22;58605;48.700;8.760;2023-06-19T00:55:27;20.50;72.50
70947;DHT22;58605;48.700;8.760;2023-06-19T00:57:54;20.70;72.70
70947;DHT22;58605;48.700;8.760;2023-06-19T01:00:21;20.90;71.90
70947;DHT22;58605;48.700;8.760;2023-06-19T01:02:47;20.90;72.10
70947;DHT22;58605;48.700;8.760;2023-06-19T01:05:15;21.10;71.80
70947;DHT22;58605;48.700;8.760;2023-06-19T01:07:45;21.30;71.40
70947;DHT22;58605;48.700;8.760;2023-06-19T01:10:16;21.40;71.80
70947;DHT22;58605;48.700;8.760;2023-06-19T01:12:51;21.50;71.90
70947;DHT22;58605;48.700;8.760;2023-06-19T01:15:18;21.50;72.30
70947;DHT22;58605;48.700;8.760;2023-06-19T01:17:46;21.50;72.20
70947;DHT22;58605;48.700;8.760;2023-06-19T01:20:15;21.60;72.50
70947;DHT22;58605;48.700;8.760;2023-06-19T01:22:49;21.50;72.80
70947;DHT22;58605;48.700;8.760;2023-06-19T01:25:22;21.50;72.90
70947;DHT22;58605;48.700;8.760;2023-06-19T01:27:48;21.40;73.70
70947;DHT22;58605;48.700;8.760;2023-06-19T01:30:14;21.40;73.60
70947;DHT22;58605;48.700;8.760;2023-06-19T01:32:47;21.50;73.50
70947;DHT22;58605;48.700;8.760;2023-06-19T01:35:19;21.60;73.40
70947;DHT22;58605;48.700;8.760;2023-06-19T01:37:49;21.60;73.60
70947;DHT22;58605;48.700;8.760;2023-06-19T01:40:16;21.60;73.30
70947;DHT22;58605;48.700;8.760;2023-06-19T01:42:43;21.60;73.50
70947;DHT22;58605;48.700;8.760;2023-06-19T01:45:09;21.80;73.30
70947;DHT22;58605;48.700;8.760;2023-06-19T01:47:36;21.80;73.50
70947;DHT22;58605;48.700;8.760;2023-06-19T01:50:02;21.70;74.50
70947;DHT22;58605;48.700;8.760;2023-06-19T01:52:28;21.60;74.10
70947;DHT22;58605;48.700;8.760;2023-06-19T01:54:56;21.50;75.50
70947;DHT22;58605;48.700;8.760;2023-06-19T01:57:22;21.40;75.00
70947;DHT22;58605;48.700;8.760;2023-06-19T01:59:48;21.40;75.00
70947;DHT22;58605;48.700;8.760;2023-06-19T02:02:15;21.40;74.20
70947;DHT22;58605;48.700;8.760;2023-06-19T02:04:41;21.40;75.50
70947;DHT22;58605;48.700;8.760;2023-06-19T02:07:07;21.50;75.00
70947;DHT22;58605;48.700;8.760;2023-06-19T02:09:33;21.70;73.30
70947;DHT22;58605;48.700;8.760;2023-06-19T02:12:01;21.90;73.60
70947;DHT22;58605;48.700;8.760;2023-06-19T02:14:27;21.90;73.00
70947;DHT22;58605;48.700;8.760;2023-06-19T02:16:53;22.00;73.40
70947;DHT22;58605;48.700;8.760;2023-06-19T02:19:19;22.10;73.30
70947;DHT22;58605;48.700;8.760;2023-06-19T02:21:45;22.10;73.30
70947;DHT22;58605;48.700;8.760;2023-06-19T02:24:12;22.10;74.00
70947;DHT22;58605;48.700;8.760;2023-06-19T02:26:38;22.20;73.90
70947;DHT22;58605;48.700;8.760;2023-06-19T02:29:05;22.10;74.20
70947;DHT22;58605;48.700;8.760;2023-06-19T02:31:31;22.00;75.10
70947;DHT22;58605;48.700;8.760;2023-06-19T02:33:58;21.70;76.60
70947;DHT22;58605;48.700;8.760;2023-06-19T02:36:24;21.60;75.70
70947;DHT22;58605;48.700;8.760;2023-06-19T02:38:50;21.80;76.20
70947;DHT22;58605;48.700;8.760;2023-06-19T02:41:16;21.90;76.10
70947;DHT22;58605;48.700;8.760;2023-06-19T02:43:43;21.90;76.60
70947;DHT22;58605;48.700;8.760;2023-06-19T02:46:11;21.90;76.90
70947;DHT22;58605;48.700;8.760;2023-06-19T02:48:37;22.00;77.60
70947;DHT22;58605;48.700;8.760;2023-06-19T02:51:03;21.90;77.80
70947;DHT22;58605;48.700;8.760;2023-06-19T02:53:30;21.80;77.90
70947;DHT22;58605;48.700;8.760;2023-06-19T02:55:56;21.80;77.50
70947;DHT22;58605;48.700;8.760;2023-06-19T02:58:22;21.80;79.40
70947;DHT22;58605;48.700;8.760;2023-06-19T03:00:48;21.90;78.60
70947;DHT22;58605;48.700;8.760;2023-06-19T03:03:16;22.00;79.20
70947;DHT22;58605;48.700;8.760;2023-06-19T03:05:42;22.00;78.80
70947;DHT22;58605;48.700;8.760;2023-06-19T03:08:08;21.90;79.50
70947;DHT22;58605;48.700;8.760;2023-06-19T03:10:34;21.70;80.20
70947;DHT22;58605;48.700;8.760;2023-06-19T03:13:00;21.60;81.10
70947;DHT22;58605;48.700;8.760;2023-06-19T03:15:27;21.60;80.60
70947;DHT22;58605;48.700;8.760;2023-06-19T03:17:53;21.40;80.10
70947;DHT22;58605;48.700;8.760;2023-06-19T03:20:21;21.50;79.80
70947;DHT22;58605;48.700;8.760;2023-06-19T03:22:49;21.60;80.80
70947;DHT22;58605;48.700;8.760;2023-06-19T03:25:15;21.40;80.70
70947;DHT22;58605;48.700;8.760;2023-06-19T03:27:41;21.30;80.90
70947;DHT22;58605;48.700;8.760;2023-06-19T03:30:08;21.30;81.50
70947;DHT22;58605;48.700;8.760;2023-06-19T03:32:41;21.30;81.10
70947;DHT22;58605;48.700;8.760;2023-06-19T03:35:08;21.40;81.50
70947;DHT22;58605;48.700;8.760;2023-06-19T03:37:42;21.30;81.40
70947;DHT22;58605;48.700;8.760;2023-06-19T03:40:09;21.30;81.50
70947;DHT22;58605;48.700;8.760;2023-06-19T03:42:39;21.30;81.70
70947;DHT22;58605;48.700;8.760;2023-06-19T03:45:06;21.30;81.60
70947;DHT22;58605;48.700;8.760;2023-06-19T03:47:32;21.30;81.50
70947;DHT22;58605;48.700;8.760;2023-06-19T03:49:58;21.20;81.80
70947;DHT22;58605;48.700;8.760;2023-06-19T03:52:24;21.10;81.80
70947;DHT22;58605;48.700;8.760;2023-06-19T03:54:52;20.90;82.30
70947;DHT22;58605;48.700;8.760;2023-06-19T03:57:18;20.80;82.80
70947;DHT22;58605;48.700;8.760;2023-06-19T03:59:44;20.80;82.70
70947;DHT22;58605;48.700;8.760;2023-06-19T04:02:10;20.80;82.90
70947;DHT22;58605;48.700;8.760;2023-06-19T04:04:36;20.90;83.00
70947;DHT22;58605;48.700;8.760;2023-06-19T04:07:02;20.90;82.80
70947;DHT22;58605;48.700;8.760;2023-06-19T04:09:28;21.10;83.80
70947;DHT22;58605;48.700;8.760;2023-06-19T04:11:56;21.10;83.70
70947;DHT22;58605;48.700;8.760;2023-06-19T04:14:22;21.10;83.70
70947;DHT22;58605;48.700;8.760;2023-06-19T04:16:49;21.20;83.90
70947;DHT22;58605;48.700;8.760;2023-06-19T04:19:15;21.20;83.60
70947;DHT22;58605;48.700;8.760;2023-06-19T04:21:41;21.30;83.50
70947;DHT22;58605;48.700;8.760;2023-06-19T04:24:07;21.30;84.30
70947;DHT22;58605;48.700;8.760;2023-06-19T04:26:34;21.40;83.40
70947;DHT22;58605;48.700;8.760;2023-06-19T04:29:03;21.40;83.50
70947;DHT22;58605;48.700;8.760;2023-06-19T04:31:30;21.30;83.20
70947;DHT22;58605;48.700;8.760;2023-06-19T04:33:57;21.40;83.90
70947;DHT22;58605;48.700;8.760;2023-06-19T04:36:23;21.20;83.40
70947;DHT22;58605;48.700;8.760;2023-06-19T04:38:49;21.30;83.60
70947;DHT22;58605;48.700;8.760;2023-06-19T04:41:18;21.20;83.90
70947;DHT22;58605;48.700;8.760;2023-06-19T04:43:44;21.10;83.70
70947;DHT22;58605;48.700;8.760;2023-06-19T04:46:12;21.00;83.60
70947;DHT22;58605;48.700;8.760;2023-06-19T04:48:38;21.10;84.20
70947;DHT22;58605;48.700;8.760;2023-06-19T04:51:06;21.10;84.20
70947;DHT22;58605;48.700;8.760;2023-06-19T04:53:32;21.20;83.80
70947;DHT22;58605;48.700;8.760;2023-06-19T04:55:58;21.10;83.60
70947;DHT22;58605;48.700;8.760;2023-06-19T04:58:27;21.10;85.00
70947;DHT22;58605;48.700;8.760;2023-06-19T05:00:54;21.30;83.80
70947;DHT22;58605;48.700;8.760;2023-06-19T05:03:22;21.20;83.70
70947;DHT22;58605;48.700;8.760;2023-06-19T05:05:48;21.30;83.70
70947;DHT22;58605;48.700;8.760;2023-06-19T05:08:14;21.30;84.30
70947;DHT22;58605;48.700;8.760;2023-06-19T05:10:40;21.30;85.40
70947;DHT22;58605;48.700;8.760;2023-06-19T05:13:06;21.40;85.50
70947;DHT22;58605;48.700;8.760;2023-06-19T05:15:33;21.40;85.90
70947;DHT22;58605;48.700;8.760;2023-06-19T05:17:59;21.30;86.00
70947;DHT22;58605;48.700;8.760;2023-06-19T05:20:26;21.40;86.70
70947;DHT22;58605;48.700;8.760;2023-06-19T05:22:53;21.40;86.70
70947;DHT22;58605;48.700;8.760;2023-06-19T05:25:19;21.40;86.90
70947;DHT22;58605;48.700;8.760;2023-06-19T05:27:45;21.40;87.20
70947;DHT22;58605;48.700;8.760;2023-06-19T05:30:12;21.50;86.40
70947;DHT22;58605;48.700;8.760;2023-06-19T05:32:38;21.50;87.50
70947;DHT22;58605;48.700;8.760;2023-06-19T05:35:05;21.50;86.90
70947;DHT22;58605;48.700;8.760;2023-06-19T05:37:33;21.60;87.70
70947;DHT22;58605;48.700;8.760;2023-06-19T05:39:59;21.60;87.40
70947;DHT22;58605;48.700;8.760;2023-06-19T05:42:25;21.60;87.20
70947;DHT22;58605;48.700;8.760;2023-06-19T05:44:51;21.50;87.50
70947;DHT22;58605;48.700;8.760;2023-06-19T05:47:17;21.40;88.10
70947;DHT22;58605;48.700;8.760;2023-06-19T05:49:46;21.40;88.10
70947;DHT22;58605;48.700;8.760;2023-06-19T05:52:12;21.40;88.30
70947;DHT22;58605;48.700;8.760;2023-06-19T05:54:40;21.50;88.20
70947;DHT22;58605;48.700;8.760;2023-06-19T05:57:06;21.40;88.00
70947;DHT22;58605;48.700;8.760;2023-06-19T05:59:32;21.50;88.30
70947;DHT22;58605;48.700;8.760;2023-06-19T06:01:59;21.50;89.50
70947;DHT22;58605;48.700;8.760;2023-06-19T06:04:25;21.50;90.00
70947;DHT22;58605;48.700;8.760;2023-06-19T06:06:51;21.50;89.80
70947;DHT22;58605;48.700;8.760;2023-06-19T06:09:17;21.40;90.20
70947;DHT22;58605;48.700;8.760;2023-06-19T06:11:45;21.50;89.40
70947;DHT22;58605;48.700;8.760;2023-06-19T06:14:12;21.50;88.60
70947;DHT22;58605;48.700;8.760;2023-06-19T06:16:38;21.40;88.60
70947;DHT22;58605;48.700;8.760;2023-06-19T06:19:04;21.20;88.40
70947;DHT22;58605;48.700;8.760;2023-06-19T06:21:30;21.00;88.70
70947;DHT22;58605;48.700;8.760;2023-06-19T06:23:56;21.00;88.90
70947;DHT22;58605;48.700;8.760;2023-06-19T06:26:22;21.10;90.10
70947;DHT22;58605;48.700;8.760;2023-06-19T06:28:50;21.10;90.00
70947;DHT22;58605;48.700;8.760;2023-06-19T06:31:16;21.30;90.10
70947;DHT22;58605;48.700;8.760;2023-06-19T06:33:42;21.30;88.70
70947;DHT22;58605;48.700;8.760;2023-06-19T06:36:08;21.30;88.50
70947;DHT22;58605;48.700;8.760;2023-06-19T06:38:35;21.40;90.00
70947;DHT22;58605;48.700;8.760;2023-06-19T06:41:01;21.50;88.70
70947;DHT22;58605;48.700;8.760;2023-06-19T06:43:27;21.60;88.90
70947;DHT22;58605;48.700;8.760;2023-06-19T06:45:55;21.70;88.40
70947;DHT22;58605;48.700;8.760;2023-06-19T06:48:21;21.70;88.00
70947;DHT22;58605;48.700;8.760;2023-06-19T06:50:47;21.80;87.30
70947;DHT22;58605;48.700;8.760;2023-06-19T06:53:13;21.90;89.10
70947;DHT22;58605;48.700;8.760;2023-06-19T06:55:39;22.10;89.30
70947;DHT22;58605;48.700;8.760;2023-06-19T06:58:05;22.10;87.40
70947;DHT22;58605;48.700;8.760;2023-06-19T07:00:32;22.10;87.00
70947;DHT22;58605;48.700;8.760;2023-06-19T07:02:59;22.10;87.60
70947;DHT22;58605;48.700;8.760;2023-06-19T07:05:25;22.00;86.20
70947;DHT22;58605;48.700;8.760;2023-06-19T07:07:52;21.90;86.30
70947;DHT22;58605;48.700;8.760;2023-06-19T07:10:18;21.90;87.90
70947;DHT22;58605;48.700;8.760;2023-06-19T07:12:47;21.90;86.20
70947;DHT22;58605;48.700;8.760;2023-06-19T07:15:14;21.80;86.40
70947;DHT22;58605;48.700;8.760;2023-06-19T07:17:40;21.70;87.50
70947;DHT22;58605;48.700;8.760;2023-06-19T07:20:09;21.50;86.40
70947;DHT22;58605;48.700;8.760;2023-06-19T07:22:35;21.20;87.10
70947;DHT22;58605;48.700;8.760;2023-06-19T07:25:01;21.10;87.70
70947;DHT22;58605;48.700;8.760;2023-06-19T07:27:29;21.20;89.40
70947;DHT22;58605;48.700;8.760;2023-06-19T07:29:55;21.20;89.10
70947;DHT22;58605;48.700;8.760;2023-06-19T07:32:21;21.10;87.90
70947;DHT22;58605;48.700;8.760;2023-06-19T07:34:48;21.30;90.80
70947;DHT22;58605;48.700;8.760;2023-06-19T07:37:15;21.30;87.70
70947;DHT22;58605;48.700;8.760;2023-06-19T07:39:45;21.40;89.20
70947;DHT22;58605;48.700;8.760;2023-06-19T07:42:12;21.40;87.30
70947;DHT22;58605;48.700;8.760;2023-06-19T07:44:38;21.40;88.30
70947;DHT22;58605;48.700;8.760;2023-06-19T07:47:05;21.40;88.60
70947;DHT22;58605;48.700;8.760;2023-06-19T07:49:31;21.30;87.20
70947;DHT22;58605;48.700;8.760;2023-06-19T07:51:57;21.30;87.30
70947;DHT22;58605;48.700;8.760;2023-06-19T07:54:25;21.20;86.90
70947;DHT22;58605;48.700;8.760;2023-06-19T07:56:52;21.30;87.70
70947;DHT22;58605;48.700;8.760;2023-06-19T07:59:19;21.30;86.90
70947;DHT22;58605;48.700;8.760;2023-06-19T08:01:45;21.30;86.90
70947;DHT22;58605;48.700;8.760;2023-06-19T08:04:12;21.30;87.30
70947;DHT22;58605;48.700;8.760;2023-06-19T08:06:38;21.60;86.20
70947;DHT22;58605;48.700;8.760;2023-06-19T08:09:04;21.70;85.80
70947;DHT22;58605;48.700;8.760;2023-06-19T08:11:32;21.70;84.80
70947;DHT22;58605;48.700;8.760;2023-06-19T08:13:58;21.90;86.80
70947;DHT22;58605;48.700;8.760;2023-06-19T08:16:25;22.00;86.20
70947;DHT22;58605;48.700;8.760;2023-06-19T08:18:51;22.10;85.70
70947;DHT22;58605;48.700;8.760;2023-06-19T08:21:17;22.30;84.00
70947;DHT22;58605;48.700;8.760;2023-06-19T08:23:44;22.40;83.30
70947;DHT22;58605;48.700;8.760;2023-06-19T08:26:10;22.40;82.60
70947;DHT22;58605;48.700;8.760;2023-06-19T08:28:38;22.30;81.70
70947;DHT22;58605;48.700;8.760;2023-06-19T08:31:06;22.20;82.20
70947;DHT22;58605;48.700;8.760;2023-06-19T08:33:34;22.10;81.80
70947;DHT22;58605;48.700;8.760;2023-06-19T08:36:01;22.00;81.80
70947;DHT22;58605;48.700;8.760;2023-06-19T08:38:27;21.40;83.00
70947;DHT22;58605;48.700;8.760;2023-06-19T08:40:53;21.30;83.90
70947;DHT22;58605;48.700;8.760;2023-06-19T08:43:21;21.20;84.10
70947;DHT22;58605;48.700;8.760;2023-06-19T08:46:01;21.10;83.90
70947;DHT22;58605;48.700;8.760;2023-06-19T08:48:31;21.20;84.10
70947;DHT22;58605;48.700;8.760;2023-06-19T08:51:00;21.10;83.40
70947;DHT22;58605;48.700;8.760;2023-06-19T08:53:26;21.20;83.70
70947;DHT22;58605;48.700;8.760;2023-06-19T08:55:52;21.30;83.00
70947;DHT22;58605;48.700;8.760;2023-06-19T08:58:21;21.40;81.60
70947;DHT22;58605;48.700;8.760;2023-06-19T09:00:48;21.60;80.50
70947;DHT22;58605;48.700;8.760;2023-06-19T09:03:19;21.70;81.00
70947;DHT22;58605;48.700;8.760;2023-06-19T09:05:46;21.60;80.70
70947;DHT22;58605;48.700;8.760;2023-06-19T09:08:16;21.80;78.40
70947;DHT22;58605;48.700;8.760;2023-06-19T09:10:42;22.00;78.40
70947;DHT22;58605;48.700;8.760;2023-06-19T09:13:16;22.30;77.00
70947;DHT22;58605;48.700;8.760;2023-06-19T09:15:42;22.60;75.50
70947;DHT22;58605;48.700;8.760;2023-06-19T09:18:10;22.70;74.90
70947;DHT22;58605;48.700;8.760;2023-06-19T09:20:40;22.70;75.00
70947;DHT22;58605;48.700;8.760;2023-06-19T09:23:10;23.90;72.60
70947;DHT22;58605;48.700;8.760;2023-06-19T09:25:47;24.70;70.50
70947;DHT22;58605;48.700;8.760;2023-06-19T09:28:18;25.20;65.30
70947;DHT22;58605;48.700;8.760;2023-06-19T09:30:55;25.30;65.80
70947;DHT22;58605;48.700;8.760;2023-06-19T09:33:22;25.40;63.40
70947;DHT22;58605;48.700;8.760;2023-06-19T09:35:50;25.40;63.90
70947;DHT22;58605;48.700;8.760;2023-06-19T09:38:17;25.30;65.20
70947;DHT22;58605;48.700;8.760;2023-06-19T09:40:45;24.50;66.50
70947;DHT22;58605;48.700;8.760;2023-06-19T09:43:12;24.10;67.10
70947;DHT22;58605;48.700;8.760;2023-06-19T09:45:39;24.00;68.10
70947;DHT22;58605;48.700;8.760;2023-06-19T09:48:07;23.90;68.20
70947;DHT22;58605;48.700;8.760;2023-06-19T09:50:40;23.90;70.70
70947;DHT22;58605;48.700;8.760;2023-06-19T09:53:08;24.40;71.60
70947;DHT22;58605;48.700;8.760;2023-06-19T09:55:39;24.80;70.10
70947;DHT22;58605;48.700;8.760;2023-06-19T09:58:06;25.20;68.90
70947;DHT22;58605;48.700;8.760;2023-06-19T10:00:33;25.40;67.60
70947;DHT22;58605;48.700;8.760;2023-06-19T10:03:00;25.40;67.40
70947;DHT22;58605;48.700;8.760;2023-06-19T10:05:29;25.40;67.50
70947;DHT22;58605;48.700;8.760;2023-06-19T10:07:56;25.60;66.60
70947;DHT22;58605;48.700;8.760;2023-06-19T10:10:28;25.60;66.20
70947;DHT22;58605;48.700;8.760;2023-06-19T10:13:11;25.80;64.80
70947;DHT22;58605;48.700;8.760;2023-06-19T10:15:41;25.70;65.20
70947;DHT22;58605;48.700;8.760;2023-06-19T10:18:13;25.40;66.40
70947;DHT22;58605;48.700;8.760;2023-06-19T10:20:40;25.80;65.20
70947;DHT22;58605;48.700;8.760;2023-06-19T10:23:11;25.80;64.70
70947;DHT22;58605;48.700;8.760;2023-06-19T10:25:41;25.80;65.20
70947;DHT22;58605;48.700;8.760;2023-06-19T10:28:19;25.90;64.70
70947;DHT22;58605;48.700;8.760;2023-06-19T10:30:45;25.50;64.70
70947;DHT22;58605;48.700;8.760;2023-06-19T10:33:17;24.90;66.50
70947;DHT22;58605;48.700;8.760;2023-06-19T10:35:51;24.80;66.90
70947;DHT22;58605;48.700;8.760;2023-06-19T10:38:17;25.00;66.10
70947;DHT22;58605;48.700;8.760;2023-06-19T10:40:45;25.30;66.00
70947;DHT22;58605;48.700;8.760;2023-06-19T10:43:12;25.80;64.80
70947;DHT22;58605;48.700;8.760;2023-06-19T10:45:38;25.90;64.20
70947;DHT22;58605;48.700;8.760;2023-06-19T10:48:05;25.90;63.70
70947;DHT22;58605;48.700;8.760;2023-06-19T10:50:34;26.00;63.50
70947;DHT22;58605;48.700;8.760;2023-06-19T10:53:01;26.20;63.80
70947;DHT22;58605;48.700;8.760;2023-06-19T10:55:27;26.20;62.70
70947;DHT22;58605;48.700;8.760;2023-06-19T10:57:55;26.00;63.80
70947;DHT22;58605;48.700;8.760;2023-06-19T11:00:26;26.10;62.90
70947;DHT22;58605;48.700;8.760;2023-06-19T11:02:52;26.20;62.50
70947;DHT22;58605;48.700;8.760;2023-06-19T11:05:20;25.80;63.30
70947;DHT22;58605;48.700;8.760;2023-06-19T11:07:51;25.20;64.80
70947;DHT22;58605;48.700;8.760;2023-06-19T11:10:19;25.00;65.50
70947;DHT22;58605;48.700;8.760;2023-06-19T11:12:46;24.80;65.60
70947;DHT22;58605;48.700;8.760;2023-06-19T11:15:13;24.80;66.00
70947;DHT22;58605;48.700;8.760;2023-06-19T11:17:41;24.50;66.40
70947;DHT22;58605;48.700;8.760;2023-06-19T11:20:10;24.40;66.90
70947;DHT22;58605;48.700;8.760;2023-06-19T11:22:37;24.10;67.50
70947;DHT22;58605;48.700;8.760;2023-06-19T11:25:05;24.00;68.20
70947;DHT22;58605;48.700;8.760;2023-06-19T11:27:31;24.00;67.80
70947;DHT22;58605;48.700;8.760;2023-06-19T11:29:58;24.00;68.10
70947;DHT22;58605;48.700;8.760;2023-06-19T11:32:30;24.30;68.20
70947;DHT22;58605;48.700;8.760;2023-06-19T11:34:57;24.90;69.20
70947;DHT22;58605;48.700;8.760;2023-06-19T11:37:23;25.30;68.10
70947;DHT22;58605;48.700;8.760;2023-06-19T11:39:50;25.50;67.70
70947;DHT22;58605;48.700;8.760;2023-06-19T11:42:18;25.40;65.50
70947;DHT22;58605;48.700;8.760;2023-06-19T11:44:54;25.10;65.90
70947;DHT22;58605;48.700;8.760;2023-06-19T11:47:20;24.80;66.60
70947;DHT22;58605;48.700;8.760;2023-06-19T11:49:49;24.80;66.90
70947;DHT22;58605;48.700;8.760;2023-06-19T11:52:16;24.80;66.80
70947;DHT22;58605;48.700;8.760;2023-06-19T11:54:42;25.00;66.00
70947;DHT22;58605;48.700;8.760;2023-06-19T11:57:09;25.60;64.70
70947;DHT22;58605;48.700;8.760;2023-06-19T11:59:39;25.90;64.20
70947;DHT22;58605;48.700;8.760;2023-06-19T12:02:05;26.00;63.20
70947;DHT22;58605;48.700;8.760;2023-06-19T12:04:38;26.40;61.80
70947;DHT22;58605;48.700;8.760;2023-06-19T12:07:12;26.10;62.60
70947;DHT22;58605;48.700;8.760;2023-06-19T12:09:39;25.70;63.60
70947;DHT22;58605;48.700;8.760;2023-06-19T12:12:06;25.60;65.80
70947;DHT22;58605;48.700;8.760;2023-06-19T12:14:33;25.90;64.70
70947;DHT22;58605;48.700;8.760;2023-06-19T12:16:59;25.70;63.80
70947;DHT22;58605;48.700;8.760;2023-06-19T12:19:26;25.40;64.80
70947;DHT22;58605;48.700;8.760;2023-06-19T12:21:53;25.90;66.50
70947;DHT22;58605;48.700;8.760;2023-06-19T12:24:21;26.30;64.30
70947;DHT22;58605;48.700;8.760;2023-06-19T12:26:47;26.50;64.70
70947;DHT22;58605;48.700;8.760;2023-06-19T12:29:13;26.70;63.80
70947;DHT22;58605;48.700;8.760;2023-06-19T12:31:39;26.60;64.30
70947;DHT22;58605;48.700;8.760;2023-06-19T12:34:05;26.70;64.50
70947;DHT22;58605;48.700;8.760;2023-06-19T12:36:32;26.90;64.10
70947;DHT22;58605;48.700;8.760;2023-06-19T12:38:59;27.00;63.60
70947;DHT22;58605;48.700;8.760;2023-06-19T12:41:28;27.00;63.30
70947;DHT22;58605;48.700;8.760;2023-06-19T12:43:58;26.90;63.50
70947;DHT22;58605;48.700;8.760;2023-06-19T12:46:24;27.00;63.90
70947;DHT22;58605;48.700;8.760;2023-06-19T12:48:50;27.20;63.70
70947;DHT22;58605;48.700;8.760;2023-06-19T12:51:17;27.00;63.80
70947;DHT22;58605;48.700;8.760;2023-06-19T12:53:43;26.70;61.90
70947;DHT22;58605;48.700;8.760;2023-06-19T12:56:09;26.90;63.40
70947;DHT22;58605;48.700;8.760;2023-06-19T12:58:37;27.00;62.70
70947;DHT22;58605;48.700;8.760;2023-06-19T13:01:03;27.10;62.20
70947;DHT22;58605;48.700;8.760;2023-06-19T13:03:29;27.10;61.60
70947;DHT22;58605;48.700;8.760;2023-06-19T13:05:55;27.10;61.30
70947;DHT22;58605;48.700;8.760;2023-06-19T13:08:21;27.00;61.70
70947;DHT22;58605;48.700;8.760;2023-06-19T13:10:48;27.10;61.80
70947;DHT22;58605;48.700;8.760;2023-06-19T13:13:14;27.20;61.20
70947;DHT22;58605;48.700;8.760;2023-06-19T13:15:42;26.80;61.40
70947;DHT22;58605;48.700;8.760;2023-06-19T13:18:08;26.60;62.40
70947;DHT22;58605;48.700;8.760;2023-06-19T13:20:34;27.10;61.70
70947;DHT22;58605;48.700;8.760;2023-06-19T13:23:00;27.30;61.60
70947;DHT22;58605;48.700;8.760;2023-06-19T13:25:26;26.80;61.70
70947;DHT22;58605;48.700;8.760;2023-06-19T13:27:52;26.40;62.10
70947;DHT22;58605;48.700;8.760;2023-06-19T13:30:19;26.00;63.30
70947;DHT22;58605;48.700;8.760;2023-06-19T13:32:46;25.70;64.30
70947;DHT22;58605;48.700;8.760;2023-06-19T13:35:12;25.40;64.90
70947;DHT22;58605;48.700;8.760;2023-06-19T13:37:38;25.50;66.60
70947;DHT22;58605;48.700;8.760;2023-06-19T13:40:06;26.50;65.00
70947;DHT22;58605;48.700;8.760;2023-06-19T13:42:33;26.40;63.10
70947;DHT22;58605;48.700;8.760;2023-06-19T13:45:01;26.20;63.90
70947;DHT22;58605;48.700;8.760;2023-06-19T13:47:27;26.30;63.80
70947;DHT22;58605;48.700;8.760;2023-06-19T13:49:55;26.30;63.30
70947;DHT22;58605;48.700;8.760;2023-06-19T13:52:22;26.70;62.40
70947;DHT22;58605;48.700;8.760;2023-06-19T13:54:48;27.10;61.40
70947;DHT22;58605;48.700;8.760;2023-06-19T13:57:14;27.10;61.20
70947;DHT22;58605;48.700;8.760;2023-06-19T13:59:40;26.80;61.50
70947;DHT22;58605;48.700;8.760;2023-06-19T14:02:07;26.80;61.60
70947;DHT22;58605;48.700;8.760;2023-06-19T14:04:33;26.60;61.70
70947;DHT22;58605;48.700;8.760;2023-06-19T14:07:00;26.70;61.50
70947;DHT22;58605;48.700;8.760;2023-06-19T14:09:26;26.90;61.50
70947;DHT22;58605;48.700;8.760;2023-06-19T14:11:52;27.40;61.00
70947;DHT22;58605;48.700;8.760;2023-06-19T14:14:25;27.40;60.30
70947;DHT22;58605;48.700;8.760;2023-06-19T14:16:51;27.40;60.40
70947;DHT22;58605;48.700;8.760;2023-06-19T14:19:24;26.70;61.20
70947;DHT22;58605;48.700;8.760;2023-06-19T14:21:50;26.90;62.30
70947;DHT22;58605;48.700;8.760;2023-06-19T14:24:18;27.10;61.20
70947;DHT22;58605;48.700;8.760;2023-06-19T14:26:44;27.20;61.50
70947;DHT22;58605;48.700;8.760;2023-06-19T14:29:10;27.40;60.60
70947;DHT22;58605;48.700;8.760;2023-06-19T14:31:39;27.30;60.40
70947;DHT22;58605;48.700;8.760;2023-06-19T14:34:05;26.90;61.10
70947;DHT22;58605;48.700;8.760;2023-06-19T14:36:31;26.50;62.00
70947;DHT22;58605;48.700;8.760;2023-06-19T14:38:57;26.10;63.70
70947;DHT22;58605;48.700;8.760;2023-06-19T14:41:25;25.90;63.70
70947;DHT22;58605;48.700;8.760;2023-06-19T14:43:54;26.20;67.80
70947;DHT22;58605;48.700;8.760;2023-06-19T14:46:20;26.40;66.30
70947;DHT22;58605;48.700;8.760;2023-06-19T14:48:47;26.50;67.20
70947;DHT22;58605;48.700;8.760;2023-06-19T14:51:13;26.70;67.00
70947;DHT22;58605;48.700;8.760;2023-06-19T14:53:39;27.00;66.30
70947;DHT22;58605;48.700;8.760;2023-06-19T14:56:05;27.00;66.60
70947;DHT22;58605;48.700;8.760;2023-06-19T14:58:32;27.00;66.60
70947;DHT22;58605;48.700;8.760;2023-06-19T15:00:59;26.90;66.80
70947;DHT22;58605;48.700;8.760;2023-06-19T15:03:25;26.70;66.80
70947;DHT22;58605;48.700;8.760;2023-06-19T15:05:51;26.70;67.30
70947;DHT22;58605;48.700;8.760;2023-06-19T15:08:17;26.70;67.10
70947;DHT22;58605;48.700;8.760;2023-06-19T15:10:47;26.80;67.50
70947;DHT22;58605;48.700;8.760;2023-06-19T15:13:14;27.00;67.10
70947;DHT22;58605;48.700;8.760;2023-06-19T15:15:43;27.20;66.30
70947;DHT22;58605;48.700;8.760;2023-06-19T15:18:09;27.40;66.00
70947;DHT22;58605;48.700;8.760;2023-06-19T15:20:36;27.40;66.20
70947;DHT22;58605;48.700;8.760;2023-06-19T15:23:04;27.40;65.70
70947;DHT22;58605;48.700;8.760;2023-06-19T15:25:30;27.30;64.00
70947;DHT22;58605;48.700;8.760;2023-06-19T15:27:56;27.10;65.90
70947;DHT22;58605;48.700;8.760;2023-06-19T15:30:23;27.40;65.30